BBC Vesuvius — V2GB4 — position and weather

sailwx.info

Track history (hours):
 
Tides and Currents Weather Stations Pressure Air Temp Water Temp Dewpoint Dewpoint Depression Visibility Wind Speed Wind Dir Waves Ship Positions

BBC Vesuvius

Last reported at 2017-Nov-17 15:03 UTC. Time now 2017-Nov-22 21:47 UTC.
Position N 45°45' W 083°42'.

Length 126 m; draft 6.7 m.

Type: Cargo ship. MMSI: 305865000.

Date/timePositionNaut miles runAvg speedWind from/ knotsBaromVisibWave heightAir tempDewpointWater temp
2017-Nov-17 15:03N 45°45' W 083°42'115.0
2017-Nov-17 14:59N 45°44' W 083°41'715.0
2017-Nov-17 14:30N 45°38' W 083°36'815.0
2017-Nov-17 14:00N 45°32' W 083°29'715.0
2017-Nov-17 13:30N 45°26' W 083°23'  
2017-Nov-14 09:20N 45°13' W 074°17'1110.2
2017-Nov-14 08:12N 45°14' W 074°01'2 8.9
2017-Nov-14 08:00N 45°15' W 073°59'4 8.3
2017-Nov-14 07:31N 45°18' W 073°56'0 0.6
2017-Nov-14 07:01N 45°18' W 073°56'1 1.3
2017-Nov-14 06:31N 45°19' W 073°55'0 0.5
2017-Nov-14 06:00N 45°19' W 073°55'1 1.8
2017-Nov-14 05:30N 45°20' W 073°54'2 3.2
2017-Nov-14 05:00N 45°21' W 073°53'2 3.8
2017-Nov-14 04:30N 45°22' W 073°50'2 4.3
2017-Nov-14 03:59N 45°23' W 073°48'2 4.6
2017-Nov-14 03:30N 45°24' W 073°45'3 6.2
2017-Nov-14 03:00N 45°25' W 073°41'3 5.5
2017-Nov-14 02:30N 45°24' W 073°37'2 4.1
2017-Nov-14 02:00N 45°24' W 073°34'0 0.7
2017-Nov-14 01:31N 45°24' W 073°34'1 1.2
2017-Nov-14 01:01N 45°24' W 073°33'2 4.3
2017-Nov-14 00:30N 45°25' W 073°30'  
Track history (hours):
 
Tides and Currents Weather Stations Pressure Air Temp Water Temp Dewpoint Dewpoint Depression Visibility Wind Speed Wind Dir Waves Ship Positions

BBC Vesuvius

Last reported at 2017-Nov-17 15:03 UTC. Time now 2017-Nov-22 21:47 UTC.
Position N 45°45' W 083°42'.

Length 126 m; draft 6.7 m.

Type: Cargo ship. MMSI: 305865000.

Date/timePositionNaut miles runAvg speedWind from/ knotsBaromVisibWave heightAir tempDewpointWater temp
2017-Nov-17 15:03N 45°45' W 083°42'115.0
2017-Nov-17 14:59N 45°44' W 083°41'715.0
2017-Nov-17 14:30N 45°38' W 083°36'815.0
2017-Nov-17 14:00N 45°32' W 083°29'715.0
2017-Nov-17 13:30N 45°26' W 083°23'  
2017-Nov-14 09:20N 45°13' W 074°17'1110.2
2017-Nov-14 08:12N 45°14' W 074°01'2 8.9
2017-Nov-14 08:00N 45°15' W 073°59'4 8.3
2017-Nov-14 07:31N 45°18' W 073°56'0 0.6
2017-Nov-14 07:01N 45°18' W 073°56'1 1.3
2017-Nov-14 06:31N 45°19' W 073°55'0 0.5
2017-Nov-14 06:00N 45°19' W 073°55'1 1.8
2017-Nov-14 05:30N 45°20' W 073°54'2 3.2
2017-Nov-14 05:00N 45°21' W 073°53'2 3.8
2017-Nov-14 04:30N 45°22' W 073°50'2 4.3
2017-Nov-14 03:59N 45°23' W 073°48'2 4.6
2017-Nov-14 03:30N 45°24' W 073°45'3 6.2
2017-Nov-14 03:00N 45°25' W 073°41'3 5.5
2017-Nov-14 02:30N 45°24' W 073°37'2 4.1
2017-Nov-14 02:00N 45°24' W 073°34'0 0.7
2017-Nov-14 01:31N 45°24' W 073°34'1 1.2
2017-Nov-14 01:01N 45°24' W 073°33'2 4.3
2017-Nov-14 00:30N 45°25' W 073°30'  

Dump ship's entire track history